RJAN(METAR)
10/19 16:00
RJAN 190700Z 06018G38KT 6000 RA FEW006 SCT010 OVC020 16/15 Q1014 RMK
A2996=
戻る
トップページへ戻る
IMOC Co,.Ltd.